sensor_id;sensor_type;location;lat;lon;timestamp;P1;durP1;ratioP1;P2;durP2;ratioP2
17169;SDS011;8700;48.222;16.342;2023-08-07T00:02:38;1.50;;;1.40;;
17169;SDS011;8700;48.222;16.342;2023-08-07T00:06:01;1.52;;;1.42;;
17169;SDS011;8700;48.222;16.342;2023-08-07T00:09:22;2.00;;;1.90;;
17169;SDS011;8700;48.222;16.342;2023-08-07T00:12:44;1.40;;;1.40;;
17169;SDS011;8700;48.222;16.342;2023-08-07T00:16:05;1.58;;;1.48;;
17169;SDS011;8700;48.222;16.342;2023-08-07T00:19:26;1.42;;;1.33;;
17169;SDS011;8700;48.222;16.342;2023-08-07T00:22:49;1.77;;;1.67;;
17169;SDS011;8700;48.222;16.342;2023-08-07T00:26:11;1.45;;;1.33;;
17169;SDS011;8700;48.222;16.342;2023-08-07T00:29:32;1.48;;;1.38;;
17169;SDS011;8700;48.222;16.342;2023-08-07T00:32:53;1.85;;;1.75;;
17169;SDS011;8700;48.222;16.342;2023-08-07T00:36:14;3.00;;;1.40;;
17169;SDS011;8700;48.222;16.342;2023-08-07T00:39:36;2.65;;;1.50;;
17169;SDS011;8700;48.222;16.342;2023-08-07T00:42:58;1.65;;;1.55;;
17169;SDS011;8700;48.222;16.342;2023-08-07T00:46:19;1.80;;;1.70;;
17169;SDS011;8700;48.222;16.342;2023-08-07T00:49:40;1.50;;;1.40;;
17169;SDS011;8700;48.222;16.342;2023-08-07T00:53:02;1.80;;;1.70;;
17169;SDS011;8700;48.222;16.342;2023-08-07T00:56:29;1.90;;;1.30;;
17169;SDS011;8700;48.222;16.342;2023-08-07T00:59:52;2.13;;;2.03;;
17169;SDS011;8700;48.222;16.342;2023-08-07T01:03:13;1.80;;;1.70;;
17169;SDS011;8700;48.222;16.342;2023-08-07T01:06:34;3.05;;;1.42;;
17169;SDS011;8700;48.222;16.342;2023-08-07T01:09:55;1.58;;;1.45;;
17169;SDS011;8700;48.222;16.342;2023-08-07T01:13:24;2.20;;;1.65;;
17169;SDS011;8700;48.222;16.342;2023-08-07T01:16:55;1.83;;;1.73;;
17169;SDS011;8700;48.222;16.342;2023-08-07T01:20:21;1.73;;;1.63;;
17169;SDS011;8700;48.222;16.342;2023-08-07T01:23:44;1.33;;;1.23;;
17169;SDS011;8700;48.222;16.342;2023-08-07T01:27:10;2.63;;;2.33;;
17169;SDS011;8700;48.222;16.342;2023-08-07T01:30:40;1.10;;;1.10;;
17169;SDS011;8700;48.222;16.342;2023-08-07T01:34:10;2.05;;;1.90;;
17169;SDS011;8700;48.222;16.342;2023-08-07T01:37:36;1.90;;;1.80;;
17169;SDS011;8700;48.222;16.342;2023-08-07T01:41:02;2.05;;;1.85;;
17169;SDS011;8700;48.222;16.342;2023-08-07T01:44:24;2.10;;;1.90;;
17169;SDS011;8700;48.222;16.342;2023-08-07T01:47:45;3.20;;;1.88;;
17169;SDS011;8700;48.222;16.342;2023-08-07T01:51:09;2.35;;;1.85;;
17169;SDS011;8700;48.222;16.342;2023-08-07T01:54:30;2.75;;;1.83;;
17169;SDS011;8700;48.222;16.342;2023-08-07T01:57:53;1.75;;;1.65;;
17169;SDS011;8700;48.222;16.342;2023-08-07T02:01:14;2.35;;;2.25;;
17169;SDS011;8700;48.222;16.342;2023-08-07T02:04:36;2.45;;;2.25;;
17169;SDS011;8700;48.222;16.342;2023-08-07T02:07:57;2.10;;;1.90;;
17169;SDS011;8700;48.222;16.342;2023-08-07T02:11:18;4.05;;;1.52;;
17169;SDS011;8700;48.222;16.342;2023-08-07T02:14:41;2.20;;;2.10;;
17169;SDS011;8700;48.222;16.342;2023-08-07T02:18:02;2.17;;;2.08;;
17169;SDS011;8700;48.222;16.342;2023-08-07T02:21:24;3.10;;;2.40;;
17169;SDS011;8700;48.222;16.342;2023-08-07T02:24:45;2.28;;;2.17;;
17169;SDS011;8700;48.222;16.342;2023-08-07T02:28:06;4.55;;;1.92;;
17169;SDS011;8700;48.222;16.342;2023-08-07T02:31:28;1.48;;;1.38;;
17169;SDS011;8700;48.222;16.342;2023-08-07T02:34:50;2.38;;;2.20;;
17169;SDS011;8700;48.222;16.342;2023-08-07T02:38:11;2.03;;;1.92;;
17169;SDS011;8700;48.222;16.342;2023-08-07T02:41:32;2.80;;;2.60;;
17169;SDS011;8700;48.222;16.342;2023-08-07T02:44:53;2.00;;;1.85;;
17169;SDS011;8700;48.222;16.342;2023-08-07T02:48:16;3.35;;;2.25;;
17169;SDS011;8700;48.222;16.342;2023-08-07T02:51:37;2.00;;;1.83;;
17169;SDS011;8700;48.222;16.342;2023-08-07T02:54:58;2.22;;;1.80;;
17169;SDS011;8700;48.222;16.342;2023-08-07T02:58:20;1.77;;;1.67;;
17169;SDS011;8700;48.222;16.342;2023-08-07T03:01:41;2.38;;;2.17;;
17169;SDS011;8700;48.222;16.342;2023-08-07T03:05:05;2.38;;;2.17;;
17169;SDS011;8700;48.222;16.342;2023-08-07T03:08:27;2.05;;;1.85;;
17169;SDS011;8700;48.222;16.342;2023-08-07T03:11:48;1.92;;;1.83;;
17169;SDS011;8700;48.222;16.342;2023-08-07T03:15:09;2.80;;;2.60;;
17169;SDS011;8700;48.222;16.342;2023-08-07T03:18:31;2.28;;;1.83;;
17169;SDS011;8700;48.222;16.342;2023-08-07T03:21:54;2.67;;;1.83;;
17169;SDS011;8700;48.222;16.342;2023-08-07T03:25:15;2.40;;;2.28;;
17169;SDS011;8700;48.222;16.342;2023-08-07T03:28:36;2.60;;;2.35;;
17169;SDS011;8700;48.222;16.342;2023-08-07T03:31:58;2.33;;;1.88;;
17169;SDS011;8700;48.222;16.342;2023-08-07T03:35:19;1.88;;;1.70;;
17169;SDS011;8700;48.222;16.342;2023-08-07T03:38:41;1.88;;;1.77;;
17169;SDS011;8700;48.222;16.342;2023-08-07T03:42:03;2.25;;;2.15;;
17169;SDS011;8700;48.222;16.342;2023-08-07T03:45:25;2.17;;;1.77;;
17169;SDS011;8700;48.222;16.342;2023-08-07T03:48:46;2.00;;;1.90;;
17169;SDS011;8700;48.222;16.342;2023-08-07T03:52:07;2.53;;;2.35;;
17169;SDS011;8700;48.222;16.342;2023-08-07T03:55:30;2.40;;;1.80;;
17169;SDS011;8700;48.222;16.342;2023-08-07T03:58:51;1.73;;;1.58;;
17169;SDS011;8700;48.222;16.342;2023-08-07T04:02:12;2.22;;;1.80;;
17169;SDS011;8700;48.222;16.342;2023-08-07T04:05:33;1.83;;;1.70;;
17169;SDS011;8700;48.222;16.342;2023-08-07T04:08:55;4.53;;;2.17;;
17169;SDS011;8700;48.222;16.342;2023-08-07T04:12:17;3.08;;;2.17;;
17169;SDS011;8700;48.222;16.342;2023-08-07T04:15:39;2.08;;;1.98;;
17169;SDS011;8700;48.222;16.342;2023-08-07T04:19:01;1.83;;;1.73;;
17169;SDS011;8700;48.222;16.342;2023-08-07T04:22:22;2.03;;;1.92;;
17169;SDS011;8700;48.222;16.342;2023-08-07T04:25:43;1.95;;;1.85;;
17169;SDS011;8700;48.222;16.342;2023-08-07T04:29:06;2.53;;;2.33;;
17169;SDS011;8700;48.222;16.342;2023-08-07T04:32:28;2.08;;;1.98;;
17169;SDS011;8700;48.222;16.342;2023-08-07T04:35:49;1.90;;;1.80;;
17169;SDS011;8700;48.222;16.342;2023-08-07T04:39:10;2.00;;;1.90;;
17169;SDS011;8700;48.222;16.342;2023-08-07T04:42:32;2.90;;;2.05;;
17169;SDS011;8700;48.222;16.342;2023-08-07T04:45:57;2.00;;;1.90;;
17169;SDS011;8700;48.222;16.342;2023-08-07T04:49:19;3.08;;;1.58;;
17169;SDS011;8700;48.222;16.342;2023-08-07T04:52:40;1.63;;;1.52;;
17169;SDS011;8700;48.222;16.342;2023-08-07T04:56:01;1.13;;;1.13;;
17169;SDS011;8700;48.222;16.342;2023-08-07T04:59:23;2.85;;;1.45;;
17169;SDS011;8700;48.222;16.342;2023-08-07T05:02:46;1.30;;;1.25;;
17169;SDS011;8700;48.222;16.342;2023-08-07T05:06:08;1.85;;;1.77;;
17169;SDS011;8700;48.222;16.342;2023-08-07T05:09:30;2.17;;;1.65;;
17169;SDS011;8700;48.222;16.342;2023-08-07T05:12:51;2.78;;;1.98;;
17169;SDS011;8700;48.222;16.342;2023-08-07T05:16:14;2.17;;;2.08;;
17169;SDS011;8700;48.222;16.342;2023-08-07T05:19:39;1.80;;;1.70;;
17169;SDS011;8700;48.222;16.342;2023-08-07T05:23:00;3.22;;;1.27;;
17169;SDS011;8700;48.222;16.342;2023-08-07T05:26:21;1.58;;;1.58;;
17169;SDS011;8700;48.222;16.342;2023-08-07T05:29:43;1.40;;;1.40;;
17169;SDS011;8700;48.222;16.342;2023-08-07T05:33:04;2.17;;;1.98;;
17169;SDS011;8700;48.222;16.342;2023-08-07T05:36:27;1.20;;;1.20;;
17169;SDS011;8700;48.222;16.342;2023-08-07T05:39:49;1.65;;;1.60;;
17169;SDS011;8700;48.222;16.342;2023-08-07T05:43:10;2.95;;;2.75;;
17169;SDS011;8700;48.222;16.342;2023-08-07T05:46:31;5.07;;;1.80;;
17169;SDS011;8700;48.222;16.342;2023-08-07T05:49:53;1.70;;;1.40;;
17169;SDS011;8700;48.222;16.342;2023-08-07T05:53:15;1.50;;;1.40;;
17169;SDS011;8700;48.222;16.342;2023-08-07T05:56:37;2.60;;;1.20;;
17169;SDS011;8700;48.222;16.342;2023-08-07T05:59:58;1.52;;;1.42;;
17169;SDS011;8700;48.222;16.342;2023-08-07T06:03:20;1.30;;;1.30;;
17169;SDS011;8700;48.222;16.342;2023-08-07T06:06:41;1.48;;;1.48;;
17169;SDS011;8700;48.222;16.342;2023-08-07T06:10:04;1.80;;;1.70;;
17169;SDS011;8700;48.222;16.342;2023-08-07T06:13:26;1.88;;;1.77;;
17169;SDS011;8700;48.222;16.342;2023-08-07T06:16:47;1.42;;;1.40;;
17169;SDS011;8700;48.222;16.342;2023-08-07T06:20:09;1.83;;;1.73;;
17169;SDS011;8700;48.222;16.342;2023-08-07T06:23:31;1.17;;;1.17;;
17169;SDS011;8700;48.222;16.342;2023-08-07T06:26:53;1.45;;;1.45;;
17169;SDS011;8700;48.222;16.342;2023-08-07T06:30:14;1.00;;;1.00;;
17169;SDS011;8700;48.222;16.342;2023-08-07T06:33:36;1.75;;;1.65;;
17169;SDS011;8700;48.222;16.342;2023-08-07T06:36:57;2.20;;;1.05;;
17169;SDS011;8700;48.222;16.342;2023-08-07T06:40:19;2.10;;;2.00;;
17169;SDS011;8700;48.222;16.342;2023-08-07T06:43:41;1.50;;;1.42;;
17169;SDS011;8700;48.222;16.342;2023-08-07T06:47:03;0.93;;;0.93;;
17169;SDS011;8700;48.222;16.342;2023-08-07T06:50:24;2.50;;;1.83;;
17169;SDS011;8700;48.222;16.342;2023-08-07T06:53:45;2.17;;;1.70;;
17169;SDS011;8700;48.222;16.342;2023-08-07T06:57:07;1.55;;;1.13;;
17169;SDS011;8700;48.222;16.342;2023-08-07T07:00:29;1.65;;;1.55;;
17169;SDS011;8700;48.222;16.342;2023-08-07T07:03:50;1.48;;;1.48;;
17169;SDS011;8700;48.222;16.342;2023-08-07T07:07:12;1.58;;;1.48;;
17169;SDS011;8700;48.222;16.342;2023-08-07T07:10:33;4.40;;;1.73;;
17169;SDS011;8700;48.222;16.342;2023-08-07T07:13:55;1.98;;;1.88;;
17169;SDS011;8700;48.222;16.342;2023-08-07T07:17:17;1.30;;;1.20;;
17169;SDS011;8700;48.222;16.342;2023-08-07T07:20:39;1.15;;;1.15;;
17169;SDS011;8700;48.222;16.342;2023-08-07T07:24:00;2.17;;;2.05;;
17169;SDS011;8700;48.222;16.342;2023-08-07T07:27:22;1.83;;;1.73;;
17169;SDS011;8700;48.222;16.342;2023-08-07T07:30:45;3.13;;;1.65;;
17169;SDS011;8700;48.222;16.342;2023-08-07T07:34:08;2.05;;;1.52;;
17169;SDS011;8700;48.222;16.342;2023-08-07T07:37:29;2.30;;;2.20;;
17169;SDS011;8700;48.222;16.342;2023-08-07T07:40:51;3.67;;;1.88;;
17169;SDS011;8700;48.222;16.342;2023-08-07T07:44:15;2.10;;;2.00;;
17169;SDS011;8700;48.222;16.342;2023-08-07T07:47:37;1.33;;;1.23;;
17169;SDS011;8700;48.222;16.342;2023-08-07T07:50:59;1.70;;;1.60;;
17169;SDS011;8700;48.222;16.342;2023-08-07T07:54:21;2.15;;;2.05;;
17169;SDS011;8700;48.222;16.342;2023-08-07T07:57:42;1.50;;;1.40;;
17169;SDS011;8700;48.222;16.342;2023-08-07T08:01:03;2.92;;;2.72;;
17169;SDS011;8700;48.222;16.342;2023-08-07T08:04:24;2.42;;;2.22;;
17169;SDS011;8700;48.222;16.342;2023-08-07T08:07:47;5.75;;;2.03;;
17169;SDS011;8700;48.222;16.342;2023-08-07T08:11:08;1.92;;;1.83;;
17169;SDS011;8700;48.222;16.342;2023-08-07T08:14:29;2.15;;;2.05;;
17169;SDS011;8700;48.222;16.342;2023-08-07T08:17:51;2.90;;;2.08;;
17169;SDS011;8700;48.222;16.342;2023-08-07T08:21:12;1.70;;;1.60;;
17169;SDS011;8700;48.222;16.342;2023-08-07T08:24:35;3.53;;;2.20;;
17169;SDS011;8700;48.222;16.342;2023-08-07T08:27:56;2.92;;;2.72;;
17169;SDS011;8700;48.222;16.342;2023-08-07T08:31:17;1.70;;;1.60;;
17169;SDS011;8700;48.222;16.342;2023-08-07T08:34:40;1.90;;;1.80;;
17169;SDS011;8700;48.222;16.342;2023-08-07T08:38:01;1.77;;;1.67;;
17169;SDS011;8700;48.222;16.342;2023-08-07T08:41:25;3.17;;;1.77;;
17169;SDS011;8700;48.222;16.342;2023-08-07T08:44:46;2.10;;;1.90;;
17169;SDS011;8700;48.222;16.342;2023-08-07T08:48:15;2.33;;;2.22;;
17169;SDS011;8700;48.222;16.342;2023-08-07T08:51:42;2.53;;;1.67;;
17169;SDS011;8700;48.222;16.342;2023-08-07T08:55:04;2.35;;;2.22;;
17169;SDS011;8700;48.222;16.342;2023-08-07T08:58:28;3.78;;;2.40;;
17169;SDS011;8700;48.222;16.342;2023-08-07T09:01:50;2.20;;;2.10;;
17169;SDS011;8700;48.222;16.342;2023-08-07T09:05:12;2.45;;;2.35;;
17169;SDS011;8700;48.222;16.342;2023-08-07T09:08:35;2.50;;;2.30;;
17169;SDS011;8700;48.222;16.342;2023-08-07T09:11:57;3.65;;;2.60;;
17169;SDS011;8700;48.222;16.342;2023-08-07T09:15:22;3.40;;;1.73;;
17169;SDS011;8700;48.222;16.342;2023-08-07T09:18:46;1.90;;;1.80;;
17169;SDS011;8700;48.222;16.342;2023-08-07T09:22:09;2.20;;;2.10;;
17169;SDS011;8700;48.222;16.342;2023-08-07T09:25:31;2.08;;;1.98;;
17169;SDS011;8700;48.222;16.342;2023-08-07T09:28:53;3.30;;;3.10;;
17169;SDS011;8700;48.222;16.342;2023-08-07T09:32:16;2.70;;;2.60;;
17169;SDS011;8700;48.222;16.342;2023-08-07T09:35:38;2.10;;;2.00;;
17169;SDS011;8700;48.222;16.342;2023-08-07T09:39:00;2.53;;;2.42;;
17169;SDS011;8700;48.222;16.342;2023-08-07T09:42:22;2.42;;;2.33;;
17169;SDS011;8700;48.222;16.342;2023-08-07T09:45:43;2.75;;;2.55;;
17169;SDS011;8700;48.222;16.342;2023-08-07T09:49:06;2.92;;;2.55;;
17169;SDS011;8700;48.222;16.342;2023-08-07T09:52:28;2.55;;;2.35;;
17169;SDS011;8700;48.222;16.342;2023-08-07T09:55:51;2.85;;;2.65;;
17169;SDS011;8700;48.222;16.342;2023-08-07T09:59:12;2.13;;;2.03;;
17169;SDS011;8700;48.222;16.342;2023-08-07T10:02:34;2.53;;;2.33;;
17169;SDS011;8700;48.222;16.342;2023-08-07T10:05:56;2.38;;;1.92;;
17169;SDS011;8700;48.222;16.342;2023-08-07T10:09:19;2.35;;;2.15;;
17169;SDS011;8700;48.222;16.342;2023-08-07T10:12:41;2.63;;;2.42;;
17169;SDS011;8700;48.222;16.342;2023-08-07T10:16:05;2.70;;;2.47;;
17169;SDS011;8700;48.222;16.342;2023-08-07T10:19:26;2.08;;;1.88;;
17169;SDS011;8700;48.222;16.342;2023-08-07T10:22:49;2.42;;;2.33;;
17169;SDS011;8700;48.222;16.342;2023-08-07T10:26:12;3.22;;;2.92;;
17169;SDS011;8700;48.222;16.342;2023-08-07T10:29:34;2.33;;;2.22;;
17169;SDS011;8700;48.222;16.342;2023-08-07T10:32:57;3.65;;;3.35;;
17169;SDS011;8700;48.222;16.342;2023-08-07T10:36:20;2.10;;;2.00;;
17169;SDS011;8700;48.222;16.342;2023-08-07T10:43:25;2.78;;;2.58;;
17169;SDS011;8700;48.222;16.342;2023-08-07T10:46:48;2.72;;;2.53;;
17169;SDS011;8700;48.222;16.342;2023-08-07T10:50:10;2.47;;;2.15;;
17169;SDS011;8700;48.222;16.342;2023-08-07T10:53:33;2.55;;;2.45;;
17169;SDS011;8700;48.222;16.342;2023-08-07T10:56:57;2.90;;;2.65;;
17169;SDS011;8700;48.222;16.342;2023-08-07T11:00:21;2.65;;;2.45;;
17169;SDS011;8700;48.222;16.342;2023-08-07T11:03:51;2.55;;;2.45;;
17169;SDS011;8700;48.222;16.342;2023-08-07T11:07:21;2.28;;;2.13;;
17169;SDS011;8700;48.222;16.342;2023-08-07T11:10:44;3.10;;;2.80;;
17169;SDS011;8700;48.222;16.342;2023-08-07T11:14:06;3.72;;;2.95;;
17169;SDS011;8700;48.222;16.342;2023-08-07T11:17:28;3.00;;;2.35;;
17169;SDS011;8700;48.222;16.342;2023-08-07T11:20:50;3.13;;;2.92;;
17169;SDS011;8700;48.222;16.342;2023-08-07T11:24:12;2.83;;;2.63;;
17169;SDS011;8700;48.222;16.342;2023-08-07T11:27:34;2.63;;;2.42;;
17169;SDS011;8700;48.222;16.342;2023-08-07T11:30:57;2.55;;;2.40;;
17169;SDS011;8700;48.222;16.342;2023-08-07T11:34:19;2.30;;;2.20;;
17169;SDS011;8700;48.222;16.342;2023-08-07T11:37:45;2.60;;;2.40;;
17169;SDS011;8700;48.222;16.342;2023-08-07T11:41:06;2.33;;;2.22;;
17169;SDS011;8700;48.222;16.342;2023-08-07T11:44:28;2.95;;;2.75;;
17169;SDS011;8700;48.222;16.342;2023-08-07T11:47:55;3.85;;;3.40;;
17169;SDS011;8700;48.222;16.342;2023-08-07T11:51:18;3.78;;;3.47;;
17169;SDS011;8700;48.222;16.342;2023-08-07T11:54:40;3.58;;;3.30;;
17169;SDS011;8700;48.222;16.342;2023-08-07T11:58:03;2.83;;;2.63;;
17169;SDS011;8700;48.222;16.342;2023-08-07T12:01:25;2.50;;;2.40;;
17169;SDS011;8700;48.222;16.342;2023-08-07T12:04:50;2.83;;;2.63;;
17169;SDS011;8700;48.222;16.342;2023-08-07T12:08:11;3.05;;;2.85;;
17169;SDS011;8700;48.222;16.342;2023-08-07T12:11:33;2.67;;;2.58;;
17169;SDS011;8700;48.222;16.342;2023-08-07T12:14:56;4.38;;;3.45;;
17169;SDS011;8700;48.222;16.342;2023-08-07T12:18:18;4.03;;;3.72;;
17169;SDS011;8700;48.222;16.342;2023-08-07T12:21:41;4.13;;;3.28;;
17169;SDS011;8700;48.222;16.342;2023-08-07T12:25:03;2.85;;;2.42;;
17169;SDS011;8700;48.222;16.342;2023-08-07T12:28:24;3.53;;;3.33;;
17169;SDS011;8700;48.222;16.342;2023-08-07T12:31:46;3.22;;;3.03;;
17169;SDS011;8700;48.222;16.342;2023-08-07T12:35:07;3.53;;;3.22;;
17169;SDS011;8700;48.222;16.342;2023-08-07T12:38:30;3.53;;;3.28;;
17169;SDS011;8700;48.222;16.342;2023-08-07T12:41:51;3.08;;;2.85;;
17169;SDS011;8700;48.222;16.342;2023-08-07T12:45:13;3.33;;;3.13;;
17169;SDS011;8700;48.222;16.342;2023-08-07T12:48:35;3.15;;;2.95;;
17169;SDS011;8700;48.222;16.342;2023-08-07T12:51:56;3.50;;;3.20;;
17169;SDS011;8700;48.222;16.342;2023-08-07T12:55:19;3.33;;;3.13;;
17169;SDS011;8700;48.222;16.342;2023-08-07T12:58:40;4.55;;;4.03;;
17169;SDS011;8700;48.222;16.342;2023-08-07T13:02:02;4.28;;;3.85;;
17169;SDS011;8700;48.222;16.342;2023-08-07T13:05:24;4.32;;;4.03;;
17169;SDS011;8700;48.222;16.342;2023-08-07T13:08:45;3.25;;;3.03;;
17169;SDS011;8700;48.222;16.342;2023-08-07T13:12:08;2.97;;;2.78;;
17169;SDS011;8700;48.222;16.342;2023-08-07T13:15:29;2.80;;;2.60;;
17169;SDS011;8700;48.222;16.342;2023-08-07T13:18:52;4.03;;;3.75;;
17169;SDS011;8700;48.222;16.342;2023-08-07T13:22:14;3.58;;;3.35;;
17169;SDS011;8700;48.222;16.342;2023-08-07T13:25:35;3.33;;;3.13;;
17169;SDS011;8700;48.222;16.342;2023-08-07T13:28:58;3.80;;;3.50;;
17169;SDS011;8700;48.222;16.342;2023-08-07T13:32:19;3.97;;;3.78;;
17169;SDS011;8700;48.222;16.342;2023-08-07T13:35:40;4.03;;;3.70;;
17169;SDS011;8700;48.222;16.342;2023-08-07T13:39:01;3.67;;;3.38;;
17169;SDS011;8700;48.222;16.342;2023-08-07T13:42:23;3.67;;;3.42;;
17169;SDS011;8700;48.222;16.342;2023-08-07T13:45:48;3.90;;;3.60;;
17169;SDS011;8700;48.222;16.342;2023-08-07T13:49:10;3.58;;;3.28;;
17169;SDS011;8700;48.222;16.342;2023-08-07T13:52:31;4.85;;;4.55;;
17169;SDS011;8700;48.222;16.342;2023-08-07T13:55:52;3.08;;;2.70;;
17169;SDS011;8700;48.222;16.342;2023-08-07T13:59:14;3.53;;;3.33;;
17169;SDS011;8700;48.222;16.342;2023-08-07T14:02:36;3.30;;;3.10;;
17169;SDS011;8700;48.222;16.342;2023-08-07T14:05:57;2.63;;;2.42;;
17169;SDS011;8700;48.222;16.342;2023-08-07T14:09:19;3.38;;;3.10;;
17169;SDS011;8700;48.222;16.342;2023-08-07T14:12:41;3.65;;;3.45;;
17169;SDS011;8700;48.222;16.342;2023-08-07T14:16:02;4.07;;;3.67;;
17169;SDS011;8700;48.222;16.342;2023-08-07T14:19:25;3.53;;;3.22;;
17169;SDS011;8700;48.222;16.342;2023-08-07T14:22:46;3.30;;;3.00;;
17169;SDS011;8700;48.222;16.342;2023-08-07T14:26:07;4.50;;;4.10;;
17169;SDS011;8700;48.222;16.342;2023-08-07T14:29:29;2.72;;;2.60;;
17169;SDS011;8700;48.222;16.342;2023-08-07T14:32:50;5.25;;;3.90;;
17169;SDS011;8700;48.222;16.342;2023-08-07T14:36:13;3.40;;;3.15;;
17169;SDS011;8700;48.222;16.342;2023-08-07T14:39:37;2.85;;;2.75;;
17169;SDS011;8700;48.222;16.342;2023-08-07T14:42:59;3.35;;;3.15;;
17169;SDS011;8700;48.222;16.342;2023-08-07T14:46:20;2.55;;;2.35;;
17169;SDS011;8700;48.222;16.342;2023-08-07T14:49:43;3.22;;;2.90;;
17169;SDS011;8700;48.222;16.342;2023-08-07T14:53:05;3.33;;;3.10;;
17169;SDS011;8700;48.222;16.342;2023-08-07T14:56:27;3.58;;;3.28;;
17169;SDS011;8700;48.222;16.342;2023-08-07T14:59:48;3.55;;;3.15;;
17169;SDS011;8700;48.222;16.342;2023-08-07T15:03:09;3.20;;;2.97;;
17169;SDS011;8700;48.222;16.342;2023-08-07T15:06:31;3.60;;;3.38;;
17169;SDS011;8700;48.222;16.342;2023-08-07T15:09:54;2.95;;;2.75;;
17169;SDS011;8700;48.222;16.342;2023-08-07T15:13:15;3.42;;;3.15;;
17169;SDS011;8700;48.222;16.342;2023-08-07T15:16:36;4.85;;;3.13;;
17169;SDS011;8700;48.222;16.342;2023-08-07T15:19:57;3.15;;;2.95;;
17169;SDS011;8700;48.222;16.342;2023-08-07T15:23:19;6.15;;;3.88;;
17169;SDS011;8700;48.222;16.342;2023-08-07T15:26:41;3.95;;;3.65;;
17169;SDS011;8700;48.222;16.342;2023-08-07T15:30:03;3.55;;;3.25;;
17169;SDS011;8700;48.222;16.342;2023-08-07T15:33:24;3.40;;;3.17;;
17169;SDS011;8700;48.222;16.342;2023-08-07T15:36:46;3.65;;;3.45;;
17169;SDS011;8700;48.222;16.342;2023-08-07T15:40:08;3.05;;;2.85;;
17169;SDS011;8700;48.222;16.342;2023-08-07T15:43:31;4.40;;;3.22;;
17169;SDS011;8700;48.222;16.342;2023-08-07T15:46:52;3.30;;;3.10;;
17169;SDS011;8700;48.222;16.342;2023-08-07T15:50:13;3.42;;;3.13;;
17169;SDS011;8700;48.222;16.342;2023-08-07T15:53:35;4.32;;;3.92;;
17169;SDS011;8700;48.222;16.342;2023-08-07T15:56:56;3.67;;;3.47;;
17169;SDS011;8700;48.222;16.342;2023-08-07T16:00:18;2.92;;;2.47;;
17169;SDS011;8700;48.222;16.342;2023-08-07T16:03:40;3.22;;;3.03;;
17169;SDS011;8700;48.222;16.342;2023-08-07T16:07:01;3.33;;;2.70;;
17169;SDS011;8700;48.222;16.342;2023-08-07T16:10:23;2.42;;;2.22;;
17169;SDS011;8700;48.222;16.342;2023-08-07T16:13:45;2.60;;;2.38;;
17169;SDS011;8700;48.222;16.342;2023-08-07T16:17:09;3.10;;;2.90;;
17169;SDS011;8700;48.222;16.342;2023-08-07T16:20:30;3.55;;;2.95;;
17169;SDS011;8700;48.222;16.342;2023-08-07T16:23:52;4.57;;;3.78;;
17169;SDS011;8700;48.222;16.342;2023-08-07T16:27:13;2.40;;;2.28;;
17169;SDS011;8700;48.222;16.342;2023-08-07T16:30:35;2.60;;;2.40;;
17169;SDS011;8700;48.222;16.342;2023-08-07T16:33:57;2.92;;;2.72;;
17169;SDS011;8700;48.222;16.342;2023-08-07T16:37:18;2.78;;;2.58;;
17169;SDS011;8700;48.222;16.342;2023-08-07T16:40:40;3.30;;;3.10;;
17169;SDS011;8700;48.222;16.342;2023-08-07T16:44:02;3.55;;;3.35;;
17169;SDS011;8700;48.222;16.342;2023-08-07T16:47:23;2.95;;;2.65;;
17169;SDS011;8700;48.222;16.342;2023-08-07T16:50:46;4.00;;;3.70;;
17169;SDS011;8700;48.222;16.342;2023-08-07T16:54:07;2.53;;;2.33;;
17169;SDS011;8700;48.222;16.342;2023-08-07T16:57:29;2.65;;;2.45;;
17169;SDS011;8700;48.222;16.342;2023-08-07T17:00:50;6.00;;;5.50;;
17169;SDS011;8700;48.222;16.342;2023-08-07T17:04:12;2.88;;;2.67;;
17169;SDS011;8700;48.222;16.342;2023-08-07T17:07:34;3.47;;;2.63;;
17169;SDS011;8700;48.222;16.342;2023-08-07T17:10:56;3.97;;;3.67;;
17169;SDS011;8700;48.222;16.342;2023-08-07T17:14:17;2.70;;;2.50;;
17169;SDS011;8700;48.222;16.342;2023-08-07T17:17:38;3.58;;;3.13;;
17169;SDS011;8700;48.222;16.342;2023-08-07T17:21:00;3.13;;;2.92;;
17169;SDS011;8700;48.222;16.342;2023-08-07T17:24:22;3.75;;;3.13;;
17169;SDS011;8700;48.222;16.342;2023-08-07T17:27:43;2.55;;;2.35;;
17169;SDS011;8700;48.222;16.342;2023-08-07T17:31:05;2.83;;;2.63;;
17169;SDS011;8700;48.222;16.342;2023-08-07T17:34:26;2.45;;;2.35;;
17169;SDS011;8700;48.222;16.342;2023-08-07T17:37:48;2.70;;;2.50;;
17169;SDS011;8700;48.222;16.342;2023-08-07T17:41:10;3.08;;;2.88;;
17169;SDS011;8700;48.222;16.342;2023-08-07T17:44:32;2.20;;;2.00;;
17169;SDS011;8700;48.222;16.342;2023-08-07T17:47:53;4.38;;;4.05;;
17169;SDS011;8700;48.222;16.342;2023-08-07T17:51:14;1.90;;;1.80;;
17169;SDS011;8700;48.222;16.342;2023-08-07T17:54:35;2.00;;;1.90;;
17169;SDS011;8700;48.222;16.342;2023-08-07T17:57:58;2.80;;;1.98;;
17169;SDS011;8700;48.222;16.342;2023-08-07T18:01:19;2.38;;;2.28;;
17169;SDS011;8700;48.222;16.342;2023-08-07T18:04:41;1.88;;;1.77;;
17169;SDS011;8700;48.222;16.342;2023-08-07T18:08:02;1.60;;;1.50;;
17169;SDS011;8700;48.222;16.342;2023-08-07T18:11:24;1.77;;;1.67;;
17169;SDS011;8700;48.222;16.342;2023-08-07T18:14:47;2.53;;;2.33;;
17169;SDS011;8700;48.222;16.342;2023-08-07T18:18:09;4.38;;;3.33;;
17169;SDS011;8700;48.222;16.342;2023-08-07T18:21:29;2.10;;;2.00;;
17169;SDS011;8700;48.222;16.342;2023-08-07T18:24:51;2.00;;;1.90;;
17169;SDS011;8700;48.222;16.342;2023-08-07T18:28:12;2.75;;;2.20;;
17169;SDS011;8700;48.222;16.342;2023-08-07T18:31:35;2.65;;;1.67;;
17169;SDS011;8700;48.222;16.342;2023-08-07T18:34:56;2.10;;;2.00;;
17169;SDS011;8700;48.222;16.342;2023-08-07T18:38:17;2.83;;;2.70;;
17169;SDS011;8700;48.222;16.342;2023-08-07T18:41:39;3.05;;;2.75;;
17169;SDS011;8700;48.222;16.342;2023-08-07T18:45:00;2.97;;;2.75;;
17169;SDS011;8700;48.222;16.342;2023-08-07T18:48:24;2.55;;;2.35;;
17169;SDS011;8700;48.222;16.342;2023-08-07T18:51:46;2.60;;;2.30;;
17169;SDS011;8700;48.222;16.342;2023-08-07T18:55:07;4.55;;;2.03;;
17169;SDS011;8700;48.222;16.342;2023-08-07T18:58:29;2.60;;;2.47;;
17169;SDS011;8700;48.222;16.342;2023-08-07T19:01:50;2.13;;;2.00;;
17169;SDS011;8700;48.222;16.342;2023-08-07T19:05:13;2.00;;;1.90;;
17169;SDS011;8700;48.222;16.342;2023-08-07T19:08:34;2.60;;;2.40;;
17169;SDS011;8700;48.222;16.342;2023-08-07T19:11:57;1.95;;;1.85;;
17169;SDS011;8700;48.222;16.342;2023-08-07T19:15:18;2.78;;;2.45;;
17169;SDS011;8700;48.222;16.342;2023-08-07T19:18:40;3.10;;;2.83;;
17169;SDS011;8700;48.222;16.342;2023-08-07T19:22:03;2.75;;;2.55;;
17169;SDS011;8700;48.222;16.342;2023-08-07T19:25:24;3.83;;;3.33;;
17169;SDS011;8700;48.222;16.342;2023-08-07T19:28:46;3.10;;;2.90;;
17169;SDS011;8700;48.222;16.342;2023-08-07T19:32:09;3.03;;;2.78;;
17169;SDS011;8700;48.222;16.342;2023-08-07T19:35:30;6.53;;;3.72;;
17169;SDS011;8700;48.222;16.342;2023-08-07T19:38:55;3.30;;;3.10;;
17169;SDS011;8700;48.222;16.342;2023-08-07T19:42:16;7.28;;;4.82;;
17169;SDS011;8700;48.222;16.342;2023-08-07T19:45:38;4.47;;;3.28;;
17169;SDS011;8700;48.222;16.342;2023-08-07T20:00:39;6.10;;;2.97;;
17169;SDS011;8700;48.222;16.342;2023-08-07T20:04:01;3.13;;;2.92;;
17169;SDS011;8700;48.222;16.342;2023-08-07T20:07:22;3.83;;;3.53;;
17169;SDS011;8700;48.222;16.342;2023-08-07T20:10:43;3.00;;;2.80;;
17169;SDS011;8700;48.222;16.342;2023-08-07T20:14:05;2.97;;;2.55;;
17169;SDS011;8700;48.222;16.342;2023-08-07T20:17:28;3.10;;;2.90;;
17169;SDS011;8700;48.222;16.342;2023-08-07T20:20:49;3.95;;;3.30;;
17169;SDS011;8700;48.222;16.342;2023-08-07T20:24:10;3.22;;;2.65;;
17169;SDS011;8700;48.222;16.342;2023-08-07T20:27:32;4.57;;;2.65;;
17169;SDS011;8700;48.222;16.342;2023-08-07T20:30:53;3.00;;;2.75;;
17169;SDS011;8700;48.222;16.342;2023-08-07T20:34:15;3.35;;;2.80;;